Data for 02/24/2006

Time Sea-Level Adjusted Pressure Absolute Pressure Temperature Relative Humidity Dew Point   
(mb) (inHg) (mb) (inHg) (C) (F) (%) (C) (F)
00:05 1009 29.8 838 24.75 3.8 38.8 44 -7.3 18.9
00:10 1009 29.8 838 24.75 3.8 38.9 43 -7.8 18
00:15 1009 29.8 838 24.75 4 39.2 43 -7.4 18.6
00:20 1009 29.8 838 24.75 3.8 38.9 44 -7.4 18.7
00:25 1009 29.8 838 24.75 3.9 39 44 -7.2 19.1
00:30 1009 29.8 838 24.75 3.6 38.5 47 -6.5 20.3
00:35 1009 29.8 838 24.75 3.4 38.2 49 -6.3 20.7
00:40 1009 29.8 838 24.75 3.3 38 49 -6.3 20.6
00:45 1009 29.8 838 24.75 3.1 37.6 50 -6.4 20.5
00:50 1009 29.8 838 24.75 3.2 37.7 46 -7.3 18.8
00:55 1009 29.8 838 24.75 3.3 38 45 -7.4 18.6
01:00 1009 29.8 838 24.75 3.5 38.2 44 -7.7 18.1
01:05 1009 29.8 838 24.75 3.5 38.3 43 -7.8 18
01:10 1009 29.8 838 24.75 3.5 38.3 45 -7.3 18.8
01:15 1009 29.8 838 24.75 3.4 38.1 45 -7.6 18.3
01:20 1009 29.8 838 24.75 3.4 38 45 -7.6 18.4
01:25 1009 29.8 838 24.75 3.6 38.4 43 -7.8 17.9
01:30 1009 29.8 839 24.78 3.6 38.5 46 -7 19.3
01:35 1010 29.83 839 24.78 3.5 38.2 48 -6.6 20.2
01:40 1010 29.83 839 24.78 3.3 38 50 -6.2 20.9
01:45 1010 29.83 840 24.81 3 37.3 65 -2.9 26.7
01:50 1010 29.83 840 24.81 1.7 35.1 72 -2.8 26.9
01:55 1011 29.85 840 24.81 1.2 34.1 75 -2.8 26.9
02:00 1011 29.85 840 24.81 0.9 33.7 77 -2.7 27.1
02:05 1011 29.85 840 24.81 0.7 33.3 82 -2 28.4
02:10 1011 29.85 840 24.81 0.3 32.6 84 -2 28.4
02:15 1011 29.85 840 24.81 0.1 32.3 84 -2.2 28.1
02:20 1011 29.85 840 24.81 -0 32 86 -2 28.4
02:25 1011 29.85 840 24.81 -0.2 31.6 88 -2 28.4
02:30 1011 29.85 840 24.81 -0.3 31.5 88 -2 28.4
02:35 1011 29.85 840 24.81 -0.4 31.2 89 -2.1 28.3
02:40 1011 29.85 840 24.81 -0.4 31.3 89 -2 28.4
02:45 1011 29.85 840 24.81 -0.4 31.2 90 -1.9 28.5
02:50 1011 29.85 840 24.81 -0.5 31.1 90 -1.9 28.6
02:55 1011 29.85 840 24.81 -0.5 31.1 91 -1.8 28.8
03:00 1011 29.85 840 24.81 -0.5 31.1 91 -1.7 28.9
03:05 1011 29.85 840 24.81 -0.4 31.3 91 -1.7 29
03:10 1011 29.85 840 24.81 -0.3 31.4 91 -1.6 29
03:15 1011 29.85 840 24.81 -0.3 31.5 91 -1.6 29.1
03:20 1011 29.85 840 24.81 -0.3 31.4 91 -1.6 29.2
03:25 1011 29.85 840 24.81 -0.3 31.4 91 -1.6 29.1
03:30 1011 29.85 840 24.81 -0.3 31.5 91 -1.5 29.2
03:35 1011 29.85 841 24.83 -0.3 31.4 93 -1.3 29.6
03:40 1011 29.85 841 24.83 -0.5 31.2 95 -1.2 29.9
03:45 1011 29.85 840 24.81 -0.5 31 96 -1.1 30
03:50 1011 29.85 840 24.81 -0.6 31 96 -1.1 30
03:55 1011 29.85 840 24.81 -0.6 31 96 -1.1 30
04:00 1011 29.85 840 24.81 -0.5 31.2 96 -1.1 30
04:05 1011 29.85 840 24.81 -0.5 31.2 95 -1.1 29.9
04:10 1011 29.85 840 24.81 -0.4 31.2 95 -1.2 29.9
04:15 1011 29.85 841 24.83 -0.4 31.2 95 -1.2 29.8
04:20 1011 29.85 841 24.83 -0.3 31.4 94 -1.2 29.8
04:25 1012 29.88 841 24.83 -0.3 31.4 94 -1.2 29.8
04:30 1012 29.88 841 24.83 -0.4 31.3 94 -1.2 29.8
04:35 1012 29.88 841 24.83 -0.4 31.3 94 -1.2 29.8
04:40 1012 29.88 841 24.83 -0.5 31.2 95 -1.2 29.8
04:45 1012 29.88 841 24.83 -0.3 31.5 93 -1.3 29.6
04:50 1012 29.88 841 24.83 -0.3 31.5 93 -1.4 29.5
04:55 1012 29.88 841 24.83 -0.2 31.6 92 -1.3 29.6
05:00 1012 29.88 841 24.83 -0.1 31.9 92 -1.3 29.7
05:05 1012 29.88 841 24.83 -0.1 31.8 91 -1.4 29.4
05:10 1012 29.88 841 24.83 0 32 89 -1.6 29
05:15 1012 29.88 841 24.83 0.1 32.2 88 -1.7 28.9
05:20 1012 29.88 841 24.83 0.1 32.2 87 -1.8 28.8
05:25 1012 29.88 841 24.83 -0 31.9 87 -1.9 28.6
05:30 1012 29.88 841 24.83 -0.1 31.9 88 -1.9 28.6
05:35 1012 29.88 842 24.86 -0.1 31.8 88 -1.9 28.5
05:40 1012 29.88 842 24.86 -0.2 31.7 87 -2 28.3
05:45 1012 29.88 842 24.86 -0.2 31.6 88 -2 28.4
05:50 1012 29.88 842 24.86 -0.2 31.6 87 -2.1 28.2
05:55 1013 29.91 842 24.86 -0.2 31.7 87 -2.2 28.1
06:00 1013 29.91 842 24.86 -0.1 31.8 85 -2.3 27.8
06:05 1013 29.91 842 24.86 -0 32 85 -2.3 27.8
06:10 1013 29.91 842 24.86 -0 32 84 -2.4 27.7
06:15 1013 29.91 842 24.86 -0.1 31.9 85 -2.3 27.8
06:20 1013 29.91 842 24.86 -0.1 31.9 85 -2.3 27.8
06:25 1013 29.91 842 24.86 -0.1 31.8 84 -2.5 27.6
06:30 1013 29.91 843 24.89 -0.1 31.9 83 -2.6 27.3
06:35 1013 29.91 843 24.89 -0.1 31.8 83 -2.7 27.2
06:40 1013 29.91 843 24.89 -0.2 31.7 83 -2.7 27.1
06:45 1014 29.94 843 24.89 -0.2 31.6 83 -2.7 27.1
06:50 1014 29.94 843 24.89 -0.4 31.3 82 -3 26.6
06:55 1014 29.94 843 24.89 -0.5 31.1 82 -3.2 26.3
07:00 1014 29.94 843 24.89 -0.7 30.8 81 -3.5 25.7
07:05 1014 29.94 843 24.89 -0.9 30.3 81 -3.7 25.3
07:10 1014 29.94 843 24.89 -1 30.2 80 -4 24.7
07:15 1014 29.94 843 24.89 -1.1 30 78 -4.4 24
07:20 1014 29.94 843 24.89 -1.3 29.7 78 -4.5 23.8
07:25 1014 29.94 844 24.92 -1.3 29.6 78 -4.6 23.7
07:30 1014 29.94 844 24.92 -1.4 29.5 78 -4.8 23.4
07:35 1015 29.97 844 24.92 -1.4 29.5 78 -4.7 23.5
07:40 1015 29.97 844 24.92 -1.4 29.6 77 -4.8 23.3
07:45 1015 29.97 844 24.92 -1.3 29.6 77 -4.8 23.3
07:50 1015 29.97 844 24.92 -1.4 29.6 78 -4.8 23.4
07:55 1015 29.97 844 24.92 -1.4 29.5 77 -4.9 23.2
08:00 1015 29.97 844 24.92 -1.4 29.5 78 -4.8 23.3
08:05 1015 29.97 844 24.92 -1.4 29.6 76 -5.1 22.7
08:10 1015 29.97 844 24.92 -1.3 29.7 74 -5.3 22.5
08:15 1015 29.97 844 24.92 -1.3 29.7 74 -5.4 22.2
08:20 1015 29.97 844 24.92 -1.2 29.9 72 -5.5 22
08:25 1015 29.97 844 24.92 -1.1 30.1 73 -5.4 22.3
08:30 1015 29.97 845 24.95 -1 30.2 72 -5.5 22.1
08:35 1016 30 845 24.95 -1.1 30.1 73 -5.2 22.6
08:40 1016 30 845 24.95 -1.1 30 74 -5.3 22.5
08:45 1016 30 845 24.95 -1.1 30 72 -5.5 22.1
08:50 1016 30 845 24.95 -1.1 30 72 -5.6 22
08:55 1016 30 845 24.95 -1 30.2 71 -5.6 21.9
09:00 1016 30 845 24.95 -0.8 30.5 69 -5.9 21.4
09:05 1016 30 845 24.95 -0.9 30.4 68 -6 21.1
09:10 1016 30 845 24.95 -1 30.3 67 -6.4 20.5
09:15 1016 30 845 24.95 -1 30.2 68 -6.2 20.8
09:20 1016 30 845 24.95 -1 30.3 67 -6.3 20.6
09:25 1016 30 845 24.95 -1 30.2 66 -6.7 20
09:30 1016 30 845 24.95 -1.1 30 66 -6.6 20.2
09:35 1016 30 845 24.95 -1.1 30 68 -6.2 20.8
09:40 1016 30 845 24.95 -0.9 30.4 66 -6.5 20.3
09:45 1016 30 846 24.98 -1.1 30 67 -6.4 20.4
09:50 1016 30 846 24.98 -0.9 30.4 67 -6.2 20.9
09:55 1016 30 846 24.98 -0.7 30.7 67 -6.1 21
10:00 1016 30 846 24.98 -0.6 30.9 70 -5.5 22.2
10:05 1017 30.03 846 24.98 -0.6 30.9 68 -5.7 21.7
10:10 1017 30.03 846 24.98 -1 30.2 77 -4.5 24
10:15 1017 30.03 846 24.98 -2.1 28.2 81 -5 23
10:20 1017 30.03 846 24.98 -2.2 28.1 85 -4.3 24.2
10:25 1017 30.03 846 24.98 -2.3 27.9 87 -4.2 24.5
10:30 1017 30.03 846 24.98 -2.2 28 85 -4.5 24
10:35 1017 30.03 846 24.98 -2.2 28.1 83 -4.7 23.5
10:40 1017 30.03 846 24.98 -2.3 27.9 82 -5 23
10:45 1017 30.03 846 24.98 -2 28.4 80 -4.9 23.2
10:50 1017 30.03 846 24.98 -1.5 29.2 76 -5.3 22.4
10:55 1017 30.03 846 24.98 -0.5 31.1 63 -6.6 20
11:00 1017 30.03 846 24.98 -0.2 31.7 62 -6.6 20.1
11:05 1017 30.03 846 24.98 -0.2 31.7 60 -7.1 19.3
11:10 1017 30.03 846 24.98 -0.3 31.4 61 -7 19.4
11:15 1017 30.03 846 24.98 -0.6 30.9 61 -7.1 19.1
11:20 1017 30.03 846 24.98 -0.5 31.2 65 -6.3 20.7
11:25 1017 30.03 846 24.98 -0.5 31.2 65 -6.3 20.7
11:30 1017 30.03 846 24.98 0 32.1 62 -6.3 20.6
11:35 1017 30.03 847 25.01 0.4 32.7 61 -6.2 20.8
11:40 1017 30.03 847 25.01 -0.1 31.9 60 -6.9 19.6
11:45 1017 30.03 847 25.01 0.5 32.9 60 -6.4 20.4
11:50 1017 30.03 847 25.01 0.8 33.4 61 -5.9 21.3
11:55 1018 30.06 847 25.01 0.2 32.4 65 -5.7 21.8
12:00 1018 30.06 847 25.01 -0.3 31.5 64 -6.3 20.7
12:05 1018 30.06 847 25.01 -1.1 30.1 67 -6.4 20.6
12:10 1018 30.06 847 25.01 -1.8 28.8 76 -5.5 22.1
12:15 1018 30.06 847 25.01 -1.9 28.6 75 -5.7 21.7
12:20 1018 30.06 847 25.01 -1.6 29.2 77 -5 22.9
12:25 1018 30.06 847 25.01 -0.7 30.8 67 -6 21.3
12:30 1018 30.06 847 25.01 0.5 32.8 65 -5.4 22.2
12:35 1018 30.06 847 25.01 1 33.8 61 -5.8 21.6
12:40 1018 30.06 847 25.01 0.3 32.5 66 -5.2 22.6
12:45 1018 30.06 847 25.01 -0.1 31.8 69 -5.1 22.7
12:50 1018 30.06 847 25.01 -0.6 30.9 77 -4.1 24.6
12:55 1018 30.06 847 25.01 -0.8 30.5 75 -4.7 23.5
13:00 1018 30.06 847 25.01 -1.1 30 77 -4.7 23.6
13:05 1018 30.06 847 25.01 -0.4 31.3 73 -4.6 23.7
13:10 1018 30.06 847 25.01 -0.5 31.1 72 -5 23
13:15 1018 30.06 847 25.01 -0.6 30.9 71 -5.2 22.6
13:20 1018 30.06 847 25.01 -0.3 31.4 70 -5.1 22.9
13:25 1018 30.06 847 25.01 -0 31.9 66 -5.6 22
13:30 1018 30.06 847 25.01 -0.4 31.3 68 -5.7 21.8
13:35 1018 30.06 847 25.01 -0.4 31.3 70 -5.1 22.8
13:40 1018 30.06 847 25.01 -1.3 29.7 76 -5 23.1
13:45 1018 30.06 847 25.01 -1.5 29.2 78 -4.8 23.3
13:50 1018 30.06 847 25.01 -1.4 29.5 77 -4.9 23.2
13:55 1018 30.06 847 25.01 -1.4 29.5 77 -4.8 23.3
14:00 1018 30.06 847 25.01 -0.9 30.3 74 -4.9 23.1
14:05 1017 30.03 847 25.01 -1.1 30 75 -5 23.1
14:10 1018 30.06 847 25.01 -0.9 30.4 70 -5.6 21.9
14:15 1018 30.06 847 25.01 -0.6 30.9 69 -5.5 22
14:20 1018 30.06 847 25.01 -0.4 31.2 70 -5.2 22.6
14:25 1018 30.06 847 25.01 0.1 32.1 66 -5.6 21.9
14:30 1018 30.06 847 25.01 -0.3 31.5 66 -5.8 21.5
14:35 1018 30.06 847 25.01 -0 32 66 -5.7 21.8
14:40 1018 30.06 847 25.01 -0.3 31.5 65 -6 21.3
14:45 1018 30.06 847 25.01 -0.3 31.5 65 -6 21.2
14:50 1018 30.06 847 25.01 -0.3 31.4 65 -6.1 20.9
14:55 1017 30.03 847 25.01 0.3 32.5 61 -6.4 20.4
15:00 1017 30.03 847 25.01 0.4 32.8 61 -6.2 20.8
15:05 1017 30.03 847 25.01 0.1 32.2 62 -6.4 20.5
15:10 1018 30.06 847 25.01 0.4 32.7 58 -6.9 19.6
15:15 1017 30.03 847 25.01 0.4 32.8 58 -6.8 19.8
15:20 1017 30.03 847 25.01 0.2 32.4 59 -6.9 19.5
15:25 1017 30.03 847 25.01 0.3 32.5 58 -7.1 19.2
15:30 1017 30.03 847 25.01 0.8 33.4 55 -7.2 19
15:35 1017 30.03 847 25.01 0.9 33.7 55 -7.2 19
15:40 1017 30.03 847 25.01 1.1 34 55 -7 19.5
15:45 1017 30.03 847 25.01 1 33.8 54 -7.4 18.7
15:50 1018 30.06 847 25.01 0.9 33.5 53 -7.6 18.4
15:55 1018 30.06 847 25.01 1.4 34.6 54 -6.9 19.7
16:00 1018 30.06 847 25.01 1.8 35.3 51 -7.3 18.9
16:05 1018 30.06 847 25.01 1.8 35.2 51 -7.5 18.6
16:10 1018 30.06 847 25.01 1.9 35.5 49 -7.7 18.1
16:15 1018 30.06 847 25.01 1.6 34.9 50 -7.8 17.9
16:20 1018 30.06 847 25.01 1.9 35.5 49 -7.7 18.2
16:25 1018 30.06 847 25.01 1.6 34.8 49 -8 17.6
16:30 1018 30.06 847 25.01 1.4 34.5 51 -7.8 17.9
16:35 1018 30.06 847 25.01 1.1 34 51 -7.9 17.8
16:40 1018 30.06 847 25.01 1.1 33.9 50 -8.2 17.2
16:45 1018 30.06 847 25.01 1.3 34.4 49 -8.2 17.3
16:50 1018 30.06 847 25.01 1.3 34.4 49 -8.2 17.2
16:55 1018 30.06 847 25.01 1.7 35.1 48 -8.3 17.1
17:00 1018 30.06 847 25.01 1.4 34.6 49 -8.1 17.3
17:05 1018 30.06 847 25.01 1.2 34.1 49 -8.5 16.7
17:10 1018 30.06 847 25.01 1 33.8 49 -8.6 16.4
17:15 1018 30.06 847 25.01 1 33.8 48 -8.8 16.2
17:20 1018 30.06 847 25.01 1.3 34.3 47 -8.8 16.2
17:25 1018 30.06 847 25.01 1.6 34.9 46 -8.8 16.2
17:30 1018 30.06 847 25.01 1.6 34.8 46 -8.8 16.1
17:35 1018 30.06 847 25.01 1.1 34 49 -8.6 16.6
17:40 1018 30.06 847 25.01 0.5 33 50 -8.6 16.5
17:45 1018 30.06 847 25.01 0.3 32.6 49 -9.1 15.6
17:50 1018 30.06 847 25.01 0.3 32.5 51 -8.7 16.3
17:55 1018 30.06 847 25.01 0.4 32.6 50 -8.8 16.2
18:00 1018 30.06 847 25.01 0.1 32.1 51 -8.8 16.1
18:05 1018 30.06 847 25.01 -0 32 52 -8.8 16.2
18:10 1018 30.06 847 25.01 0.1 32.1 52 -8.6 16.4
18:15 1018 30.06 847 25.01 -0.1 31.8 53 -8.7 16.4
18:20 1018 30.06 847 25.01 -0 32 52 -8.8 16.2
18:25 1018 30.06 847 25.01 -0 32 52 -8.7 16.3
18:30 1018 30.06 847 25.01 -0.1 31.8 53 -8.6 16.4
18:35 1018 30.06 847 25.01 -0.4 31.3 53 -8.7 16.3
18:40 1018 30.06 847 25.01 -0.2 31.6 53 -8.6 16.5
18:45 1018 30.06 847 25.01 -0.2 31.6 53 -8.6 16.5
18:50 1018 30.06 847 25.01 -0.2 31.6 55 -8.3 17.1
18:55 1018 30.06 847 25.01 -0.8 30.6 58 -8.1 17.4
19:00 1018 30.06 847 25.01 -1.1 30 61 -7.8 18
19:05 1018 30.06 848 25.04 -1.3 29.7 64 -7.3 18.9
19:10 1018 30.06 848 25.04 -1.5 29.2 67 -6.9 19.5
19:15 1019 30.09 848 25.04 -1.7 28.9 68 -6.8 19.7
19:20 1019 30.09 848 25.04 -2 28.4 69 -6.8 19.7
19:25 1019 30.09 848 25.04 -2.1 28.2 70 -6.8 19.7
19:30 1019 30.09 848 25.04 -2.1 28.2 71 -6.6 20.1
19:35 1019 30.09 848 25.04 -2.2 28 71 -6.7 19.9
19:40 1019 30.09 848 25.04 -2.5 27.5 73 -6.8 19.8
19:45 1019 30.09 848 25.04 -2.9 26.9 72 -7.1 19.1
19:50 1019 30.09 848 25.04 -3.1 26.3 72 -7.5 18.6
19:55 1019 30.09 848 25.04 -3 26.6 70 -7.7 18.2
20:00 1019 30.09 848 25.04 -2.9 26.8 69 -7.8 18
20:05 1019 30.09 848 25.04 -2.9 26.7 69 -7.8 18
20:10 1019 30.09 848 25.04 -3.1 26.5 68 -8.1 17.5
20:15 1019 30.09 848 25.04 -3.2 26.2 69 -8.1 17.5
20:20 1019 30.09 848 25.04 -3.3 26 69 -8.2 17.2
20:25 1019 30.09 848 25.04 -3.2 26.2 66 -8.7 16.4
20:30 1019 30.09 848 25.04 -3.2 26.3 67 -8.5 16.7
20:35 1019 30.09 848 25.04 -3.2 26.2 69 -8.2 17.3
20:40 1019 30.09 848 25.04 -3.5 25.8 71 -7.9 17.7
20:45 1019 30.09 849 25.07 -3.8 25.2 74 -7.8 18
20:50 1019 30.09 849 25.07 -3.9 25 74 -7.9 17.8
20:55 1020 30.12 849 25.07 -4 24.8 76 -7.7 18.2
21:00 1019 30.09 849 25.07 -4.2 24.5 78 -7.5 18.6
21:05 1020 30.12 849 25.07 -4.3 24.3 79 -7.5 18.6
21:10 1020 30.12 849 25.07 -4.3 24.2 79 -7.4 18.7
21:15 1020 30.12 849 25.07 -4.4 24.1 80 -7.3 18.8
21:20 1020 30.12 849 25.07 -4.5 23.8 80 -7.4 18.6
21:25 1020 30.12 849 25.07 -4.7 23.5 82 -7.4 18.7
21:30 1020 30.12 849 25.07 -4.9 23.2 83 -7.3 18.8
21:35 1020 30.12 849 25.07 -5 22.9 83 -7.4 18.6
21:40 1020 30.12 849 25.07 -5.1 22.8 84 -7.4 18.6
21:45 1020 30.12 849 25.07 -5.3 22.5 84 -7.6 18.4
21:50 1020 30.12 849 25.07 -5.4 22.2 85 -7.6 18.3
21:55 1020 30.12 849 25.07 -5.5 22.2 86 -7.5 18.6
22:00 1020 30.12 849 25.07 -5.4 22.3 86 -7.4 18.6
22:05 1020 30.12 849 25.07 -5.6 22 86 -7.6 18.3
22:10 1020 30.12 850 25.1 -5.6 21.9 85 -7.7 18.1
22:15 1020 30.12 850 25.1 -5.6 22 84 -7.8 18
22:20 1020 30.12 850 25.1 -5.6 21.9 85 -7.7 18.1
22:25 1020 30.12 850 25.1 -5.7 21.8 85 -7.9 17.9
22:30 1020 30.12 850 25.1 -5.8 21.6 86 -7.8 17.9
22:35 1020 30.12 850 25.1 -5.9 21.4 86 -7.9 17.8
22:40 1020 30.12 850 25.1 -6 21.2 86 -7.9 17.7
22:45 1020 30.12 850 25.1 -6 21.2 86 -8.1 17.5
22:50 1021 30.15 850 25.1 -5.8 21.6 84 -8 17.6
22:55 1021 30.15 850 25.1 -5.8 21.5 85 -8 17.6
23:00 1021 30.15 850 25.1 -5.8 21.6 84 -8.1 17.4
23:05 1021 30.15 850 25.1 -5.8 21.5 84 -8.1 17.5
23:10 1021 30.15 850 25.1 -5.8 21.5 85 -8 17.5
23:15 1021 30.15 850 25.1 -5.9 21.4 87 -7.8 18
23:20 1021 30.15 850 25.1 -5.8 21.6 87 -7.6 18.4
23:25 1021 30.15 850 25.1 -5.7 21.7 88 -7.4 18.6
23:30 1021 30.15 850 25.1 -5.7 21.8 88 -7.4 18.7
23:35 1021 30.15 850 25.1 -5.7 21.8 86 -7.7 18.2
23:40 1021 30.15 850 25.1 -5.7 21.8 86 -7.6 18.3
23:45 1021 30.15 850 25.1 -5.7 21.8 87 -7.5 18.4
23:50 1021 30.15 850 25.1 -5.7 21.8 87 -7.5 18.5
23:55 1021 30.15 850 25.1 -5.7 21.7 86 -7.7 18.2
24:00 1021 30.15 850 25.1 -5.8 21.5 86 -7.8 18